Parks Crossroads, North Carolina
Current Conditions -  °F | °C
As of 9:30 AM on Thursday 27 Nov 2014 (Local Time) from K5W8 Reporting Station
Overcast Overcast  
Wind Chill: 40°   Ceiling: 400
Heat Index: 40°   Visibility: 10mi
Dew Point: 40°   Wind: 3mph
Humidity: 99%   Direction: 300°WNW
Pressure: 30.03"   Gusts: NA
Location:  35.6832°N, 79.6174°W
Report Text: K5W8 271430Z AUTO 30003KT 10SM OVC004 05/05 A3003 RMK AO2 T00460045
Loading
Personal Weather Stations






























Interactive Weather Map New forecast layout! Learn more

10-Day Weather Forecast

Advertisements
Track Severe Weather on mobile